LIC2510 LEJR-LEXJ
Flight info
| Callsign | LIC2510 |
|---|---|
| Flight time | 1h 11m |
| Altitude | 34000 |
| Route | HIJ Z230 TLD N858 SIE N865 UNGAS/N0369F240 Y753 EMANU |
| Aircraft | B737/M-SDE2E3FGHIRWXY/LB1 |
Departure
| Time | 2026-05-05 10:34 |
|---|---|
| Airport | Jerez Airport (LEJR) |
Arrival
| Time | 2026-05-05 11:46 |
|---|---|
| Airport | Seve Ballesteros-Santander Airport (LEXJ) |
| Time | Latitude | Longitude | Altitude | Speed | Heading |
|---|---|---|---|---|---|
| 2026-05-05 10:14 | 36.74851 | -6.06370 | 86 ft | 0 kts | 291° |
| 2026-05-05 10:26 | 36.74845 | -6.06349 | 85 ft | 4 kts | 286° |
| 2026-05-05 10:27 | 36.74840 | -6.06316 | 85 ft | 4 kts | 273° |
| 2026-05-05 10:27 | 36.74842 | -6.06284 | 86 ft | 4 kts | 248° |
| 2026-05-05 10:27 | 36.74855 | -6.06262 | 89 ft | 2 kts | 202° |
| 2026-05-05 10:27 | 36.74856 | -6.06261 | 89 ft | 0 kts | 201° |
| 2026-05-05 10:30 | 36.74855 | -6.06262 | 89 ft | 1 kts | 200° |
| 2026-05-05 10:30 | 36.74832 | -6.06267 | 87 ft | 6 kts | 184° |
| 2026-05-05 10:30 | 36.74786 | -6.06242 | 85 ft | 9 kts | 127° |
| 2026-05-05 10:30 | 36.74759 | -6.06169 | 85 ft | 10 kts | 110° |
| 2026-05-05 10:31 | 36.74787 | -6.06083 | 84 ft | 13 kts | 31° |
| 2026-05-05 10:31 | 36.74875 | -6.06036 | 84 ft | 14 kts | 24° |
| 2026-05-05 10:31 | 36.74964 | -6.05987 | 85 ft | 14 kts | 22° |
| 2026-05-05 10:31 | 36.75051 | -6.05947 | 84 ft | 13 kts | 18° |
| 2026-05-05 10:32 | 36.75133 | -6.05907 | 86 ft | 10 kts | 22° |
| 2026-05-05 10:32 | 36.75160 | -6.05892 | 86 ft | 4 kts | 23° |
| 2026-05-05 10:32 | 36.75191 | -6.05876 | 86 ft | 7 kts | 22° |
| 2026-05-05 10:32 | 36.75251 | -6.05846 | 85 ft | 13 kts | 22° |
| 2026-05-05 10:33 | 36.75348 | -6.05805 | 85 ft | 16 kts | 19° |
| 2026-05-05 10:33 | 36.75443 | -6.05741 | 84 ft | 15 kts | 53° |
| 2026-05-05 10:33 | 36.75446 | -6.05617 | 89 ft | 15 kts | 113° |
| 2026-05-05 10:33 | 36.75402 | -6.05572 | 92 ft | 2 kts | 173° |
| 2026-05-05 10:34 | 36.75385 | -6.05572 | 91 ft | 5 kts | 181° |
| 2026-05-05 10:34 | 36.75033 | -6.05727 | 94 ft | 104 kts | 202° |
| 2026-05-05 10:34 | 36.74101 | -6.06202 | 182 ft | 178 kts | 203° |
| 2026-05-05 10:34 | 36.72939 | -6.06826 | 1350 ft | 174 kts | 208° |
| 2026-05-05 10:35 | 36.71847 | -6.07323 | 2722 ft | 164 kts | 191° |
| 2026-05-05 10:35 | 36.70676 | -6.07030 | 3512 ft | 193 kts | 147° |
| 2026-05-05 10:35 | 36.69591 | -6.05844 | 3942 ft | 229 kts | 134° |
| 2026-05-05 10:35 | 36.68827 | -6.04002 | 4436 ft | 253 kts | 96° |
| 2026-05-05 10:36 | 36.69126 | -6.01852 | 5392 ft | 255 kts | 60° |
| 2026-05-05 10:36 | 36.70293 | -6.00258 | 6429 ft | 252 kts | 27° |
| 2026-05-05 10:36 | 36.71958 | -5.99416 | 7149 ft | 269 kts | 13° |
| 2026-05-05 10:36 | 36.73798 | -5.98810 | 8133 ft | 277 kts | 11° |
| 2026-05-05 10:37 | 36.75699 | -5.98237 | 9210 ft | 285 kts | 10° |
| 2026-05-05 10:37 | 36.77650 | -5.97653 | 10248 ft | 292 kts | 10° |
| 2026-05-05 10:37 | 36.79702 | -5.97027 | 10792 ft | 318 kts | 10° |
| 2026-05-05 10:37 | 36.81903 | -5.96339 | 11486 ft | 332 kts | 10° |
| 2026-05-05 10:38 | 36.84165 | -5.95616 | 12422 ft | 339 kts | 10° |
| 2026-05-05 10:38 | 36.86473 | -5.94869 | 13444 ft | 345 kts | 10° |
| 2026-05-05 10:38 | 36.88820 | -5.94104 | 14340 ft | 352 kts | 10° |
| 2026-05-05 10:38 | 36.91212 | -5.93351 | 15250 ft | 356 kts | 8° |
| 2026-05-05 10:39 | 36.93640 | -5.92657 | 16175 ft | 360 kts | 7° |
| 2026-05-05 10:39 | 36.96098 | -5.91944 | 17094 ft | 366 kts | 8° |
| 2026-05-05 10:39 | 36.98592 | -5.91184 | 17991 ft | 371 kts | 8° |
| 2026-05-05 10:39 | 37.01118 | -5.90382 | 18807 ft | 377 kts | 9° |
| 2026-05-05 10:40 | 37.03670 | -5.89545 | 19586 ft | 382 kts | 9° |
| 2026-05-05 10:40 | 37.06253 | -5.88681 | 20379 ft | 387 kts | 9° |
| 2026-05-05 10:40 | 37.08869 | -5.87798 | 21143 ft | 392 kts | 9° |
| 2026-05-05 10:40 | 37.11518 | -5.86898 | 21966 ft | 396 kts | 9° |
| 2026-05-05 10:41 | 37.14192 | -5.85988 | 22748 ft | 401 kts | 9° |
| 2026-05-05 10:41 | 37.16903 | -5.85065 | 23492 ft | 406 kts | 9° |
| 2026-05-05 10:41 | 37.19647 | -5.84130 | 24113 ft | 411 kts | 8° |
| 2026-05-05 10:41 | 37.22417 | -5.83186 | 24726 ft | 415 kts | 8° |
| 2026-05-05 10:42 | 37.28003 | -5.81278 | 25951 ft | 423 kts | 8° |
| 2026-05-05 10:42 | 37.30861 | -5.80302 | 26537 ft | 427 kts | 8° |
| 2026-05-05 10:42 | 37.33744 | -5.79315 | 27130 ft | 432 kts | 7° |
| 2026-05-05 10:43 | 37.36663 | -5.78317 | 27624 ft | 438 kts | 7° |
| 2026-05-05 10:43 | 37.39619 | -5.77305 | 28162 ft | 442 kts | 7° |
| 2026-05-05 10:43 | 37.42599 | -5.76241 | 28731 ft | 449 kts | 11° |
| 2026-05-05 10:43 | 37.45531 | -5.74734 | 29255 ft | 460 kts | 17° |
| 2026-05-05 10:44 | 37.48439 | -5.73001 | 29769 ft | 465 kts | 19° |
| 2026-05-05 10:44 | 37.51354 | -5.71196 | 30331 ft | 467 kts | 19° |
| 2026-05-05 10:44 | 37.54262 | -5.69378 | 30949 ft | 465 kts | 19° |
| 2026-05-05 10:44 | 37.57157 | -5.67575 | 31570 ft | 463 kts | 19° |
| 2026-05-05 10:45 | 37.60052 | -5.65788 | 32136 ft | 464 kts | 18° |
| 2026-05-05 10:45 | 37.62957 | -5.64011 | 32618 ft | 464 kts | 18° |
| 2026-05-05 10:45 | 37.65861 | -5.62242 | 33191 ft | 462 kts | 18° |
| 2026-05-05 10:45 | 37.68749 | -5.60486 | 33812 ft | 459 kts | 18° |
| 2026-05-05 10:46 | 37.71642 | -5.58729 | 34035 ft | 465 kts | 18° |
| 2026-05-05 10:46 | 37.77464 | -5.55191 | 34019 ft | 461 kts | 18° |
| 2026-05-05 10:47 | 37.83191 | -5.51694 | 34079 ft | 457 kts | 17° |
| 2026-05-05 10:47 | 37.88944 | -5.48185 | 34021 ft | 460 kts | 17° |
| 2026-05-05 10:48 | 37.94696 | -5.44665 | 34032 ft | 458 kts | 17° |
| 2026-05-05 10:48 | 38.00430 | -5.41148 | 34016 ft | 458 kts | 17° |
| 2026-05-05 10:49 | 38.06149 | -5.37635 | 34036 ft | 456 kts | 17° |
| 2026-05-05 10:49 | 38.11876 | -5.34114 | 34035 ft | 458 kts | 17° |
| 2026-05-05 10:50 | 38.17620 | -5.30577 | 34015 ft | 459 kts | 17° |
| 2026-05-05 10:50 | 38.23372 | -5.27024 | 34023 ft | 459 kts | 17° |
| 2026-05-05 10:51 | 38.29123 | -5.23467 | 34026 ft | 460 kts | 17° |
| 2026-05-05 10:51 | 38.34892 | -5.19894 | 34030 ft | 465 kts | 17° |
| 2026-05-05 10:52 | 38.40792 | -5.16243 | 34035 ft | 483 kts | 17° |
| 2026-05-05 10:52 | 38.46849 | -5.12465 | 34017 ft | 485 kts | 18° |
| 2026-05-05 10:53 | 38.52938 | -5.08786 | 34020 ft | 481 kts | 14° |
| 2026-05-05 10:53 | 38.59125 | -5.05612 | 34030 ft | 478 kts | 12° |
| 2026-05-05 10:54 | 38.65326 | -5.02538 | 34023 ft | 478 kts | 12° |
| 2026-05-05 10:54 | 38.71510 | -4.99405 | 34015 ft | 478 kts | 12° |
| 2026-05-05 10:55 | 38.77678 | -4.96233 | 34022 ft | 477 kts | 12° |
| 2026-05-05 10:55 | 38.83843 | -4.93054 | 34027 ft | 477 kts | 12° |
| 2026-05-05 10:55 | 38.86872 | -4.91482 | 34005 ft | 462 kts | 12° |
| 2026-05-05 10:56 | 38.89854 | -4.89940 | 34024 ft | 466 kts | 12° |
| 2026-05-05 10:56 | 38.96005 | -4.86782 | 34028 ft | 486 kts | 12° |
| 2026-05-05 10:57 | 39.02383 | -4.83477 | 34090 ft | 502 kts | 13° |
| 2026-05-05 10:57 | 39.08898 | -4.80083 | 34022 ft | 504 kts | 14° |
| 2026-05-05 10:58 | 39.14290 | -4.77266 | 34010 ft | 502 kts | 14° |
| 2026-05-05 10:58 | 39.20750 | -4.73895 | 34017 ft | 500 kts | 13° |
| 2026-05-05 10:59 | 39.27190 | -4.70541 | 34048 ft | 499 kts | 14° |
| 2026-05-05 10:59 | 39.33615 | -4.67191 | 34009 ft | 497 kts | 14° |
| 2026-05-05 11:00 | 39.40015 | -4.63845 | 34005 ft | 496 kts | 14° |
| 2026-05-05 11:00 | 39.46404 | -4.60498 | 34002 ft | 494 kts | 14° |
| 2026-05-05 11:01 | 39.52773 | -4.57154 | 34016 ft | 495 kts | 14° |
| 2026-05-05 11:01 | 39.59156 | -4.53797 | 34008 ft | 495 kts | 14° |
| 2026-05-05 11:02 | 39.65556 | -4.50424 | 34004 ft | 497 kts | 14° |
| 2026-05-05 11:02 | 39.71973 | -4.47034 | 34016 ft | 498 kts | 14° |
| 2026-05-05 11:03 | 39.78416 | -4.43625 | 34018 ft | 502 kts | 14° |
| 2026-05-05 11:03 | 39.84897 | -4.40166 | 34000 ft | 505 kts | 14° |
| 2026-05-05 11:04 | 39.91393 | -4.36667 | 33999 ft | 506 kts | 14° |
| 2026-05-05 11:04 | 39.97910 | -4.33150 | 34034 ft | 508 kts | 16° |
| 2026-05-05 11:05 | 40.04379 | -4.29314 | 34007 ft | 512 kts | 19° |
| 2026-05-05 11:05 | 40.10764 | -4.25335 | 33997 ft | 512 kts | 19° |
| 2026-05-05 11:06 | 40.17233 | -4.21328 | 33991 ft | 511 kts | 18° |
| 2026-05-05 11:06 | 40.23670 | -4.17380 | 34002 ft | 510 kts | 19° |
| 2026-05-05 11:07 | 40.30101 | -4.13444 | 33992 ft | 510 kts | 19° |
| 2026-05-05 11:07 | 40.36483 | -4.09529 | 33993 ft | 510 kts | 19° |
| 2026-05-05 11:08 | 40.42893 | -4.05586 | 34024 ft | 509 kts | 19° |
| 2026-05-05 11:08 | 40.49306 | -4.01631 | 33984 ft | 508 kts | 19° |
| 2026-05-05 11:09 | 40.55683 | -3.97689 | 33992 ft | 506 kts | 19° |
| 2026-05-05 11:09 | 40.62055 | -3.93743 | 34001 ft | 505 kts | 19° |
| 2026-05-05 11:10 | 40.68418 | -3.89796 | 34005 ft | 505 kts | 19° |
| 2026-05-05 11:10 | 40.74773 | -3.85844 | 33988 ft | 505 kts | 19° |
| 2026-05-05 11:11 | 40.81118 | -3.81889 | 33996 ft | 504 kts | 19° |
| 2026-05-05 11:11 | 40.87450 | -3.77934 | 34003 ft | 503 kts | 20° |
| 2026-05-05 11:12 | 40.93763 | -3.73982 | 33996 ft | 501 kts | 20° |
| 2026-05-05 11:12 | 41.00055 | -3.70035 | 33993 ft | 500 kts | 20° |
| 2026-05-05 11:13 | 41.06325 | -3.66094 | 33984 ft | 499 kts | 20° |
| 2026-05-05 11:13 | 41.12627 | -3.62297 | 34003 ft | 493 kts | 14° |
| 2026-05-05 11:14 | 41.19229 | -3.60500 | 33997 ft | 479 kts | 356° |
| 2026-05-05 11:14 | 41.25834 | -3.60638 | 34002 ft | 474 kts | 352° |
| 2026-05-05 11:15 | 41.32415 | -3.60916 | 34017 ft | 474 kts | 353° |
| 2026-05-05 11:15 | 41.38967 | -3.61113 | 34004 ft | 474 kts | 353° |
| 2026-05-05 11:16 | 41.45562 | -3.61276 | 34004 ft | 474 kts | 353° |
| 2026-05-05 11:16 | 41.52153 | -3.61432 | 34034 ft | 474 kts | 354° |
| 2026-05-05 11:17 | 41.58757 | -3.61444 | 34009 ft | 475 kts | 355° |
| 2026-05-05 11:17 | 41.65362 | -3.61412 | 34004 ft | 475 kts | 355° |
| 2026-05-05 11:18 | 41.71966 | -3.61399 | 34024 ft | 474 kts | 355° |
| 2026-05-05 11:18 | 41.78553 | -3.61398 | 34004 ft | 469 kts | 355° |
| 2026-05-05 11:18 | 41.81760 | -3.61392 | 33946 ft | 453 kts | 355° |
| 2026-05-05 11:19 | 41.84892 | -3.61389 | 33498 ft | 446 kts | 355° |
| 2026-05-05 11:19 | 41.87978 | -3.61390 | 33000 ft | 441 kts | 355° |
| 2026-05-05 11:19 | 41.91023 | -3.61392 | 32505 ft | 436 kts | 355° |
| 2026-05-05 11:19 | 41.94040 | -3.61396 | 32025 ft | 431 kts | 355° |
| 2026-05-05 11:20 | 41.97026 | -3.61398 | 31523 ft | 427 kts | 355° |
| 2026-05-05 11:20 | 41.99983 | -3.61398 | 31029 ft | 423 kts | 355° |
| 2026-05-05 11:20 | 42.02909 | -3.61403 | 30552 ft | 419 kts | 354° |
| 2026-05-05 11:20 | 42.05807 | -3.61517 | 30128 ft | 413 kts | 353° |
| 2026-05-05 11:21 | 42.08666 | -3.61709 | 29572 ft | 409 kts | 352° |
| 2026-05-05 11:21 | 42.11484 | -3.61918 | 29053 ft | 403 kts | 352° |
| 2026-05-05 11:21 | 42.14269 | -3.62120 | 28558 ft | 398 kts | 353° |
| 2026-05-05 11:21 | 42.17023 | -3.62310 | 28035 ft | 394 kts | 353° |
| 2026-05-05 11:22 | 42.19747 | -3.62488 | 27566 ft | 389 kts | 353° |
| 2026-05-05 11:22 | 42.22435 | -3.62659 | 27064 ft | 385 kts | 353° |
| 2026-05-05 11:22 | 42.25100 | -3.62827 | 26571 ft | 381 kts | 353° |
| 2026-05-05 11:22 | 42.27732 | -3.62992 | 26083 ft | 378 kts | 353° |
| 2026-05-05 11:23 | 42.30347 | -3.63156 | 25598 ft | 374 kts | 354° |
| 2026-05-05 11:23 | 42.32934 | -3.63319 | 25126 ft | 371 kts | 354° |
| 2026-05-05 11:23 | 42.35501 | -3.63484 | 24661 ft | 367 kts | 353° |
| 2026-05-05 11:23 | 42.38018 | -3.63832 | 24303 ft | 360 kts | 349° |
| 2026-05-05 11:24 | 42.40478 | -3.64316 | 23850 ft | 356 kts | 348° |
| 2026-05-05 11:24 | 42.42920 | -3.64839 | 23367 ft | 354 kts | 348° |
| 2026-05-05 11:24 | 42.45338 | -3.65357 | 22843 ft | 351 kts | 348° |
| 2026-05-05 11:24 | 42.47737 | -3.65861 | 22376 ft | 346 kts | 348° |
| 2026-05-05 11:25 | 42.50105 | -3.66348 | 21904 ft | 342 kts | 349° |
| 2026-05-05 11:25 | 42.52450 | -3.66825 | 21434 ft | 339 kts | 349° |
| 2026-05-05 11:25 | 42.54745 | -3.67289 | 20965 ft | 336 kts | 349° |
| 2026-05-05 11:25 | 42.57048 | -3.67753 | 20513 ft | 333 kts | 349° |
| 2026-05-05 11:26 | 42.59329 | -3.68212 | 20036 ft | 331 kts | 349° |
| 2026-05-05 11:26 | 42.61598 | -3.68668 | 19582 ft | 328 kts | 349° |
| 2026-05-05 11:26 | 42.63848 | -3.69122 | 19132 ft | 326 kts | 349° |
| 2026-05-05 11:26 | 42.66085 | -3.69572 | 18680 ft | 324 kts | 349° |
| 2026-05-05 11:27 | 42.68310 | -3.70027 | 18223 ft | 322 kts | 348° |
| 2026-05-05 11:27 | 42.70499 | -3.70599 | 17766 ft | 318 kts | 345° |
| 2026-05-05 11:27 | 42.72645 | -3.71235 | 17314 ft | 314 kts | 345° |
| 2026-05-05 11:27 | 42.74773 | -3.71879 | 16858 ft | 312 kts | 345° |
| 2026-05-05 11:28 | 42.76881 | -3.72514 | 16412 ft | 309 kts | 345° |
| 2026-05-05 11:28 | 42.78976 | -3.73140 | 15972 ft | 307 kts | 345° |
| 2026-05-05 11:28 | 42.81055 | -3.73756 | 15533 ft | 305 kts | 345° |
| 2026-05-05 11:28 | 42.83121 | -3.74366 | 15093 ft | 303 kts | 346° |
| 2026-05-05 11:29 | 42.85178 | -3.74972 | 14657 ft | 302 kts | 346° |
| 2026-05-05 11:29 | 42.87228 | -3.75575 | 14223 ft | 300 kts | 346° |
| 2026-05-05 11:29 | 42.89269 | -3.76175 | 13774 ft | 299 kts | 346° |
| 2026-05-05 11:29 | 42.91297 | -3.76772 | 13290 ft | 298 kts | 346° |
| 2026-05-05 11:30 | 42.93314 | -3.77366 | 12832 ft | 296 kts | 346° |
| 2026-05-05 11:30 | 42.95359 | -3.77596 | 12363 ft | 298 kts | 6° |
| 2026-05-05 11:30 | 42.97310 | -3.76704 | 11941 ft | 299 kts | 28° |
| 2026-05-05 11:30 | 42.99029 | -3.75167 | 11737 ft | 286 kts | 32° |
| 2026-05-05 11:31 | 43.00585 | -3.73663 | 11595 ft | 263 kts | 33° |
| 2026-05-05 11:31 | 43.02028 | -3.72251 | 11474 ft | 247 kts | 33° |
| 2026-05-05 11:31 | 43.03383 | -3.70929 | 11366 ft | 233 kts | 32° |
| 2026-05-05 11:31 | 43.04665 | -3.69684 | 11248 ft | 219 kts | 32° |
| 2026-05-05 11:32 | 43.05873 | -3.68516 | 11110 ft | 207 kts | 32° |
| 2026-05-05 11:32 | 43.07041 | -3.67392 | 10875 ft | 205 kts | 32° |
| 2026-05-05 11:32 | 43.08206 | -3.66272 | 10603 ft | 205 kts | 32° |
| 2026-05-05 11:32 | 43.09367 | -3.65158 | 10333 ft | 204 kts | 32° |
| 2026-05-05 11:33 | 43.10510 | -3.64059 | 10053 ft | 203 kts | 33° |
| 2026-05-05 11:33 | 43.11673 | -3.62941 | 9728 ft | 201 kts | 32° |
| 2026-05-05 11:33 | 43.12803 | -3.61858 | 9391 ft | 201 kts | 32° |
| 2026-05-05 11:33 | 43.13942 | -3.60765 | 9092 ft | 200 kts | 32° |
| 2026-05-05 11:34 | 43.15076 | -3.59678 | 8814 ft | 198 kts | 33° |
| 2026-05-05 11:34 | 43.16207 | -3.58592 | 8491 ft | 198 kts | 32° |
| 2026-05-05 11:34 | 43.17327 | -3.57513 | 8201 ft | 197 kts | 32° |
| 2026-05-05 11:34 | 43.18460 | -3.56424 | 7820 ft | 201 kts | 31° |
| 2026-05-05 11:35 | 43.19589 | -3.55334 | 7532 ft | 199 kts | 30° |
| 2026-05-05 11:35 | 43.20719 | -3.54249 | 7233 ft | 197 kts | 30° |
| 2026-05-05 11:35 | 43.21838 | -3.53172 | 6959 ft | 194 kts | 30° |
| 2026-05-05 11:35 | 43.22960 | -3.52148 | 6690 ft | 196 kts | 29° |
| 2026-05-05 11:36 | 43.24067 | -3.51001 | 6577 ft | 198 kts | 28° |
| 2026-05-05 11:36 | 43.25199 | -3.49960 | 6484 ft | 196 kts | 30° |
| 2026-05-05 11:36 | 43.26312 | -3.48888 | 6059 ft | 195 kts | 30° |
| 2026-05-05 11:36 | 43.27408 | -3.47819 | 5678 ft | 191 kts | 30° |
| 2026-05-05 11:37 | 43.28462 | -3.46794 | 5568 ft | 184 kts | 30° |
| 2026-05-05 11:37 | 43.29487 | -3.45800 | 5483 ft | 175 kts | 31° |
| 2026-05-05 11:37 | 43.30514 | -3.45029 | 5391 ft | 163 kts | 5° |
| 2026-05-05 11:37 | 43.31612 | -3.45041 | 5335 ft | 157 kts | 342° |
| 2026-05-05 11:38 | 43.32584 | -3.45666 | 5207 ft | 157 kts | 320° |
| 2026-05-05 11:38 | 43.33262 | -3.46759 | 5060 ft | 145 kts | 292° |
| 2026-05-05 11:38 | 43.33635 | -3.48044 | 4995 ft | 145 kts | 292° |
| 2026-05-05 11:38 | 43.34031 | -3.49379 | 4819 ft | 154 kts | 291° |
| 2026-05-05 11:39 | 43.34417 | -3.50757 | 4596 ft | 152 kts | 290° |
| 2026-05-05 11:39 | 43.34780 | -3.52095 | 4385 ft | 147 kts | 290° |
| 2026-05-05 11:39 | 43.35121 | -3.53372 | 4193 ft | 144 kts | 290° |
| 2026-05-05 11:39 | 43.35465 | -3.54671 | 3997 ft | 145 kts | 289° |
| 2026-05-05 11:40 | 43.35814 | -3.55992 | 3805 ft | 144 kts | 290° |
| 2026-05-05 11:40 | 43.36163 | -3.57309 | 3622 ft | 150 kts | 290° |
| 2026-05-05 11:40 | 43.36508 | -3.58623 | 3404 ft | 143 kts | 290° |
| 2026-05-05 11:40 | 43.36818 | -3.59798 | 3211 ft | 119 kts | 290° |
| 2026-05-05 11:41 | 43.37091 | -3.60831 | 3056 ft | 119 kts | 290° |
| 2026-05-05 11:41 | 43.37396 | -3.61981 | 2926 ft | 129 kts | 288° |
| 2026-05-05 11:41 | 43.37682 | -3.63061 | 2741 ft | 111 kts | 288° |
| 2026-05-05 11:41 | 43.37938 | -3.64028 | 2575 ft | 106 kts | 288° |
| 2026-05-05 11:42 | 43.38198 | -3.65015 | 2443 ft | 112 kts | 288° |
| 2026-05-05 11:42 | 43.38459 | -3.66001 | 2296 ft | 110 kts | 288° |
| 2026-05-05 11:42 | 43.38722 | -3.66990 | 2157 ft | 110 kts | 288° |
| 2026-05-05 11:42 | 43.39011 | -3.67998 | 1945 ft | 118 kts | 283° |
| 2026-05-05 11:43 | 43.39184 | -3.69075 | 1816 ft | 119 kts | 292° |
| 2026-05-05 11:43 | 43.39616 | -3.70016 | 1645 ft | 117 kts | 304° |
| 2026-05-05 11:43 | 43.40046 | -3.70982 | 1278 ft | 116 kts | 289° |
| 2026-05-05 11:43 | 43.40255 | -3.72048 | 912 ft | 116 kts | 283° |
| 2026-05-05 11:44 | 43.40462 | -3.73077 | 724 ft | 103 kts | 287° |
| 2026-05-05 11:44 | 43.40678 | -3.73995 | 806 ft | 100 kts | 288° |
| 2026-05-05 11:44 | 43.40910 | -3.74942 | 755 ft | 107 kts | 290° |
| 2026-05-05 11:44 | 43.41158 | -3.75917 | 733 ft | 115 kts | 289° |
| 2026-05-05 11:45 | 43.41423 | -3.76970 | 631 ft | 119 kts | 287° |
| 2026-05-05 11:45 | 43.41674 | -3.78094 | 507 ft | 130 kts | 283° |
| 2026-05-05 11:45 | 43.41946 | -3.79209 | 408 ft | 117 kts | 291° |
| 2026-05-05 11:45 | 43.42220 | -3.80205 | 124 ft | 105 kts | 287° |
| 2026-05-05 11:46 | 43.42446 | -3.81084 | 25 ft | 92 kts | 287° |
| 2026-05-05 11:46 | 43.42620 | -3.81663 | 22 ft | 35 kts | 287° |
| 2026-05-05 11:46 | 43.42693 | -3.81949 | 19 ft | 43 kts | 290° |
| 2026-05-05 11:46 | 43.42733 | -3.82194 | 19 ft | 16 kts | 246° |
| 2026-05-05 11:47 | 43.42677 | -3.82252 | 17 ft | 16 kts | 200° |
| 2026-05-05 11:47 | 43.42578 | -3.82302 | 19 ft | 15 kts | 196° |
| 2026-05-05 11:47 | 43.42484 | -3.82352 | 18 ft | 13 kts | 193° |
| 2026-05-05 11:47 | 43.42422 | -3.82330 | 18 ft | 4 kts | 196° |
| 2026-05-05 11:48 | 43.42405 | -3.82355 | 18 ft | 0 kts | 232° |